Time;durP1;ratioP1;P1;durP2;ratioP2;P2;SDS_P1;SDS_P2;PMS_P1;PMS_P2;Temp;Humidity;BMP_temperature;BMP_pressure;BME280_temperature;BME280_humidity;BME280_pressure;Samples;Min_cycle;Max_cycle;Signal;HPM_P1;HPM_P2
2022/06/27 00:01:52;;;;;;;4.30;3.53;;;;;;;23.74;58.05;94887.31;4914446;29;20603;-82
2022/06/27 00:04:19;;;;;;;9.57;5.97;;;;;;;23.71;57.86;94885.16;4915132;29;20206;-82
2022/06/27 00:06:46;;;;;;;5.95;5.18;;;;;;;23.68;58.04;94885.56;4914937;29;20208;-85
2022/06/27 00:09:13;;;;;;;6.88;5.53;;;;;;;23.67;58.08;94886.59;4914594;29;20210;-85
2022/06/27 00:11:41;;;;;;;7.40;5.50;;;;;;;23.65;58.18;94889.41;4915837;29;20202;-84
2022/06/27 00:14:08;;;;;;;9.15;5.35;;;;;;;23.63;58.25;94886.19;4916188;29;20286;-84
2022/06/27 00:16:35;;;;;;;6.65;4.72;;;;;;;23.59;58.20;94885.00;4915211;29;20284;-84
2022/06/27 00:19:02;;;;;;;4.60;4.20;;;;;;;23.59;58.46;94885.00;4916469;29;20211;-79
2022/06/27 00:21:29;;;;;;;7.55;5.10;;;;;;;23.58;58.48;94888.66;4915869;29;20236;-85
2022/06/27 00:23:56;;;;;;;8.52;5.50;;;;;;;23.56;58.62;94889.84;4916491;29;20207;-86
2022/06/27 00:26:23;;;;;;;5.18;4.68;;;;;;;23.55;58.69;94899.50;4916429;29;20195;-86
2022/06/27 00:28:51;;;;;;;6.53;5.07;;;;;;;23.51;58.79;94891.28;4915969;29;20234;-85
2022/06/27 00:31:18;;;;;;;7.50;4.90;;;;;;;23.52;58.84;94889.47;4916001;29;20192;-84
2022/06/27 00:33:45;;;;;;;6.10;4.75;;;;;;;23.49;58.83;94888.13;4916672;29;20195;-84
2022/06/27 00:36:12;;;;;;;5.97;4.25;;;;;;;23.48;58.79;94888.31;4915796;29;20219;-84
2022/06/27 00:38:40;;;;;;;5.55;4.60;;;;;;;23.47;59.00;94886.72;4915953;29;20207;-85
2022/06/27 00:41:07;;;;;;;8.27;4.20;;;;;;;23.45;58.85;94883.53;4916960;29;20203;-82
2022/06/27 00:43:34;;;;;;;6.78;4.43;;;;;;;23.44;59.09;94884.53;4915584;29;20238;-84
2022/06/27 00:46:02;;;;;;;6.43;3.67;;;;;;;23.42;59.41;94887.34;4916725;29;20278;-84
2022/06/27 00:48:30;;;;;;;4.82;4.32;;;;;;;23.41;59.30;94887.56;4917664;29;20226;-81
2022/06/27 00:50:58;;;;;;;6.40;4.53;;;;;;;23.39;59.45;94886.97;4917484;29;20192;-78
2022/06/27 00:53:25;;;;;;;8.18;4.65;;;;;;;23.36;59.47;94885.59;4918067;29;20196;-82
2022/06/27 00:55:53;;;;;;;4.72;3.83;;;;;;;23.34;59.40;94879.78;4919666;29;20215;-78
2022/06/27 00:58:19;;;;;;;7.05;4.15;;;;;;;23.33;59.45;94875.56;4920397;29;20199;-83
2022/06/27 01:00:46;;;;;;;6.47;4.50;;;;;;;23.32;59.56;94873.19;4920317;29;20199;-87
2022/06/27 01:03:15;;;;;;;5.60;4.60;;;;;;;23.29;59.68;94874.41;4921615;29;20200;-85
2022/06/27 01:05:51;;;;;;;6.20;4.53;;;;;;;23.28;59.82;94871.00;4920933;29;20184;-85
2022/06/27 01:08:18;;;;;;;5.65;3.70;;;;;;;23.25;59.84;94874.03;4921005;29;20226;-82
2022/06/27 01:10:45;;;;;;;9.65;4.18;;;;;;;23.23;59.77;94872.66;4920852;29;20796;-85
2022/06/27 01:13:12;;;;;;;5.03;4.07;;;;;;;23.16;59.76;94861.44;4921495;29;20195;-85
2022/06/27 01:15:40;;;;;;;5.55;3.92;;;;;;;23.20;59.92;94860.03;4921337;29;20195;-81
2022/06/27 01:18:07;;;;;;;4.15;3.67;;;;;;;23.18;59.80;94859.41;4921177;29;20199;-84
2022/06/27 01:20:36;;;;;;;7.15;4.10;;;;;;;23.15;59.77;94854.63;4920608;29;20231;-84
2022/06/27 01:23:04;;;;;;;7.10;3.60;;;;;;;23.14;60.08;94859.03;4919818;29;20196;-84
2022/06/27 01:25:31;;;;;;;4.03;3.72;;;;;;;23.11;59.83;94858.69;4920258;29;20195;-84
2022/06/27 01:27:58;;;;;;;5.20;3.15;;;;;;;23.09;59.81;94863.28;4919567;29;20245;-84
2022/06/27 01:30:25;;;;;;;4.28;3.25;;;;;;;23.09;59.93;94871.91;4919562;29;20196;-84
2022/06/27 01:32:52;;;;;;;3.72;3.42;;;;;;;23.06;59.82;94861.91;4917738;29;20188;-84
2022/06/27 01:35:19;;;;;;;5.00;4.32;;;;;;;23.04;60.14;94863.94;4917962;29;20207;-84
2022/06/27 01:37:46;;;;;;;4.35;3.75;;;;;;;23.03;60.12;94864.94;4917650;29;20199;-84
2022/06/27 01:40:15;;;;;;;5.32;3.78;;;;;;;23.01;60.27;94872.16;4917785;29;20693;-85
2022/06/27 01:42:42;;;;;;;3.40;3.10;;;;;;;23.00;60.30;94873.19;4917594;29;20215;-83
2022/06/27 01:45:10;;;;;;;7.78;3.70;;;;;;;22.97;60.17;94873.59;4918778;29;20188;-85
2022/06/27 01:47:38;;;;;;;5.05;3.58;;;;;;;22.90;60.39;94868.44;4917141;29;20227;-85
2022/06/27 01:50:05;;;;;;;3.78;3.35;;;;;;;22.93;60.30;94886.28;4918756;29;20200;-85
2022/06/27 01:52:33;;;;;;;4.88;3.30;;;;;;;22.91;60.31;94884.88;4919390;29;20203;-84
2022/06/27 01:55:00;;;;;;;6.55;3.75;;;;;;;22.82;60.32;94875.66;4919235;29;20188;-84
2022/06/27 01:57:28;;;;;;;4.93;3.33;;;;;;;22.86;60.36;94890.69;4919878;29;20202;-86
2022/06/27 01:59:56;;;;;;;6.70;3.78;;;;;;;22.85;60.23;94896.91;4918568;29;20246;-80
2022/06/27 02:02:23;;;;;;;5.30;4.00;;;;;;;22.83;60.31;94892.91;4918822;29;20183;-84
2022/06/27 02:04:52;;;;;;;5.50;3.78;;;;;;;22.81;60.47;94895.75;4918484;29;20184;-87
2022/06/27 02:07:19;;;;;;;5.00;3.42;;;;;;;22.79;60.29;94900.34;4919153;29;20258;-85
2022/06/27 02:09:46;;;;;;;3.80;3.45;;;;;;;22.77;60.56;94904.97;4918269;29;20184;-83
2022/06/27 02:12:19;;;;;;;7.93;3.80;;;;;;;22.75;60.63;94899.97;4918522;29;20560;-84
2022/06/27 02:14:49;;;;;;;7.18;3.33;;;;;;;22.72;60.84;94903.00;4917004;29;20195;-85
2022/06/27 02:17:17;;;;;;;4.22;3.20;;;;;;;22.72;60.78;94905.59;4916716;29;20184;-85
2022/06/27 02:19:45;;;;;;;7.18;3.20;;;;;;;22.71;61.04;94903.19;4916946;29;20287;-79
2022/06/27 02:22:13;;;;;;;6.28;3.13;;;;;;;22.69;61.13;94911.22;4916344;29;20196;-85
2022/06/27 02:24:45;;;;;;;4.05;3.00;;;;;;;22.69;61.16;94903.41;4916786;29;20200;-86
2022/06/27 02:27:12;;;;;;;4.85;3.15;;;;;;;22.64;61.08;94897.22;4916994;29;20239;-85
2022/06/27 02:29:40;;;;;;;3.50;3.20;;;;;;;22.67;61.40;94907.25;4917087;29;20245;-85
2022/06/27 02:32:09;;;;;;;5.20;3.35;;;;;;;22.58;61.41;94892.81;4917300;29;20199;-76
2022/06/27 02:34:38;;;;;;;5.95;3.45;;;;;;;22.65;61.44;94911.84;4916797;29;20207;-85
2022/06/27 02:37:07;;;;;;;5.13;3.28;;;;;;;22.62;61.46;94913.06;4916830;29;20199;-84
2022/06/27 02:39:40;;;;;;;4.00;3.25;;;;;;;22.59;61.61;94915.28;4917816;29;20223;-85
2022/06/27 02:42:09;;;;;;;10.52;3.10;;;;;;;22.62;61.41;94912.25;4917145;29;20191;-84
2022/06/27 02:44:39;;;;;;;5.03;3.65;;;;;;;22.56;61.39;94913.09;4916956;29;20191;-85
2022/06/27 02:47:06;;;;;;;4.25;3.08;;;;;;;22.58;61.81;94917.06;4917551;29;20235;-86
2022/06/27 02:49:34;;;;;;;8.02;3.42;;;;;;;22.56;61.48;94913.09;4920235;29;20682;-85
2022/06/27 02:52:07;;;;;;;6.18;3.53;;;;;;;22.56;61.74;94923.53;4916262;29;20196;-85
2022/06/27 02:54:41;;;;;;;4.93;3.38;;;;;;;22.54;61.77;94918.53;4916162;29;20184;-84
2022/06/27 02:57:20;;;;;;;3.97;3.25;;;;;;;22.50;61.78;94919.94;4916705;29;20199;-84
2022/06/27 02:59:51;;;;;;;4.97;3.55;;;;;;;22.47;62.05;94917.75;4916467;29;20212;-87
2022/06/27 03:02:18;;;;;;;6.38;3.35;;;;;;;22.52;62.00;94934.34;4915917;29;20203;-86
2022/06/27 03:04:46;;;;;;;4.60;3.45;;;;;;;22.52;62.05;94936.16;4916116;29;20196;-84
2022/06/27 03:07:13;;;;;;;3.88;3.00;;;;;;;22.52;61.80;94936.16;4915808;29;20687;-85
2022/06/27 03:09:40;;;;;;;3.78;3.45;;;;;;;22.52;62.04;94930.94;4915948;29;20219;-87
2022/06/27 03:12:08;;;;;;;4.35;3.60;;;;;;;22.53;62.02;94930.72;4916165;29;20188;-85
2022/06/27 03:14:35;;;;;;;3.90;3.50;;;;;;;22.53;62.12;94935.16;4898966;29;20184;-79
2022/06/27 03:17:02;;;;;;;5.03;3.53;;;;;;;22.53;62.00;94935.94;4915135;29;20198;-85
2022/06/27 03:19:29;;;;;;;5.70;3.25;;;;;;;22.51;62.11;94922.31;4917604;29;20192;-85
2022/06/27 03:21:57;;;;;;;6.15;3.47;;;;;;;22.57;62.01;94932.94;4917765;29;20227;-84
2022/06/27 03:24:24;;;;;;;5.85;3.70;;;;;;;22.59;62.09;94933.53;4918225;29;20195;-85
2022/06/27 03:26:51;;;;;;;5.63;3.75;;;;;;;22.57;62.34;94931.13;4921221;29;20196;-82
2022/06/27 03:29:19;;;;;;;6.60;3.70;;;;;;;22.63;62.15;94926.91;4923931;29;20326;-80
2022/06/27 03:31:46;;;;;;;8.23;3.90;;;;;;;22.66;62.28;94931.69;4916091;29;20192;-79
2022/06/27 03:34:13;;;;;;;10.40;4.22;;;;;;;22.65;62.17;94922.28;4916905;29;20191;-84
2022/06/27 03:36:41;;;;;;;4.82;3.75;;;;;;;22.72;62.35;94923.06;4920458;29;20282;-84
2022/06/27 03:39:11;;;;;;;8.02;4.05;;;;;;;22.75;62.20;94939.09;4915212;29;20196;-84
2022/06/27 03:41:39;;;;;;;6.35;3.55;;;;;;;22.82;62.23;94935.66;4915957;29;20199;-85
2022/06/27 03:44:08;;;;;;;4.47;3.58;;;;;;;22.84;62.17;94929.22;4915137;29;20220;-85
2022/06/27 03:46:35;;;;;;;4.38;3.95;;;;;;;22.90;62.39;94935.44;4915224;29;20188;-84
2022/06/27 03:51:46;;;;;;;4.93;3.70;;;;;;;22.96;62.17;94935.41;4915105;29;20687;-81
2022/06/27 03:54:15;;;;;;;10.00;4.10;;;;;;;23.00;62.04;94931.38;4914672;29;20203;-82
2022/06/27 03:56:42;;;;;;;5.20;4.25;;;;;;;23.07;62.23;94943.59;4914649;29;20656;-87
2022/06/27 03:59:09;;;;;;;6.22;4.22;;;;;;;23.13;62.02;94943.53;4914423;29;20204;-78
2022/06/27 04:01:37;;;;;;;8.45;4.50;;;;;;;23.19;62.01;94939.31;4914646;29;20282;-86
2022/06/27 04:04:07;;;;;;;5.70;4.30;;;;;;;23.24;61.87;94945.50;4915167;29;20188;-84
2022/06/27 04:06:34;;;;;;;4.82;4.32;;;;;;;23.22;61.78;94931.84;4914590;29;20200;-85
2022/06/27 04:09:01;;;;;;;4.20;3.80;;;;;;;23.23;62.00;94920.41;4914917;29;20231;-79
2022/06/27 04:11:29;;;;;;;4.32;3.88;;;;;;;23.39;61.78;94936.56;4915241;29;20184;-85
2022/06/27 04:13:56;;;;;;;10.13;3.95;;;;;;;23.43;61.70;94938.53;4915431;29;20199;-84
2022/06/27 04:16:23;;;;;;;6.75;4.00;;;;;;;23.50;61.80;94936.69;4915278;29;20283;-84
2022/06/27 04:18:50;;;;;;;5.15;3.92;;;;;;;23.53;61.93;94938.88;4918622;29;20255;-81
2022/06/27 04:21:17;;;;;;;7.97;4.10;;;;;;;23.58;61.56;94934.84;4918017;29;20318;-83
2022/06/27 04:23:44;;;;;;;6.60;4.20;;;;;;;23.61;61.79;94937.00;4917996;29;20193;-86
2022/06/27 04:26:12;;;;;;;4.20;3.80;;;;;;;23.66;61.70;94938.03;4917754;29;20199;-85
2022/06/27 04:28:42;;;;;;;12.27;4.13;;;;;;;23.70;61.85;94941.00;4919910;29;20259;-87
2022/06/27 04:31:10;;;;;;;6.43;4.32;;;;;;;23.73;61.77;94937.97;4921609;29;20207;-86
2022/06/27 04:33:37;;;;;;;7.00;4.28;;;;;;;23.77;61.71;94939.13;4922246;29;20652;-84
2022/06/27 04:36:04;;;;;;;6.07;4.55;;;;;;;23.81;61.79;94939.50;4920096;29;20200;-88
2022/06/27 04:38:32;;;;;;;6.32;4.30;;;;;;;23.89;61.40;94942.66;4919379;29;20230;-85
2022/06/27 04:40:59;;;;;;;8.45;4.32;;;;;;;23.94;61.34;94937.59;4918750;29;20679;-84
2022/06/27 04:43:27;;;;;;;6.82;4.68;;;;;;;23.99;61.02;94940.34;4918624;29;20291;-84
2022/06/27 04:45:55;;;;;;;9.80;5.05;;;;;;;24.07;61.06;94943.69;4919038;29;20720;-85
2022/06/27 04:48:24;;;;;;;8.55;4.82;;;;;;;24.10;61.08;94941.47;4918250;29;20231;-86
2022/06/27 04:50:51;;;;;;;8.30;5.07;;;;;;;24.14;61.07;94942.63;4918167;29;20195;-80
2022/06/27 04:53:19;;;;;;;7.10;4.53;;;;;;;24.17;60.87;94938.78;4918153;29;20199;-81
2022/06/27 04:55:46;;;;;;;8.43;5.03;;;;;;;24.23;60.53;94938.72;4917839;29;20279;-77
2022/06/27 04:58:13;;;;;;;8.80;5.15;;;;;;;24.27;60.70;94939.09;4917388;29;20207;-81
2022/06/27 05:00:40;;;;;;;5.45;4.35;;;;;;;24.29;60.39;94937.06;4917441;29;20199;-76
2022/06/27 05:03:09;;;;;;;5.53;4.70;;;;;;;24.34;60.46;94931.97;4917261;29;20188;-83
2022/06/27 05:05:36;;;;;;;11.88;4.32;;;;;;;24.40;60.18;94944.22;4918460;29;20194;-76
2022/06/27 05:08:03;;;;;;;8.52;4.57;;;;;;;24.46;60.21;94953.78;4917308;29;20195;-75
2022/06/27 05:10:29;;;;;;;6.88;4.75;;;;;;;24.52;59.85;94952.13;4917009;29;20230;-74
2022/06/27 05:12:56;;;;;;;5.20;4.07;;;;;;;24.65;59.55;94956.41;4916695;29;20202;-75
2022/06/27 05:15:23;;;;;;;6.05;3.83;;;;;;;24.88;60.51;94956.56;4916894;29;20646;-76
2022/06/27 05:17:50;;;;;;;7.15;3.85;;;;;;;25.24;62.25;94960.94;4917099;29;20629;-77
2022/06/27 05:20:18;;;;;;;7.03;3.90;;;;;;;25.69;63.00;94968.38;4916477;29;20241;-77
2022/06/27 05:22:45;;;;;;;6.82;4.00;;;;;;;26.22;63.11;94956.25;4916912;29;20188;-75
2022/06/27 05:25:13;;;;;;;5.22;3.60;;;;;;;26.83;63.30;94959.38;4916232;29;20192;-75
2022/06/27 05:27:40;;;;;;;5.63;3.78;;;;;;;27.52;61.97;94953.06;4917164;29;20196;-80
2022/06/27 05:30:08;;;;;;;5.68;3.38;;;;;;;28.29;60.85;94958.75;4916826;29;20316;-75
2022/06/27 05:32:35;;;;;;;5.95;2.70;;;;;;;29.07;59.17;94954.28;4916581;29;20196;-78
2022/06/27 05:35:03;;;;;;;6.07;2.97;;;;;;;29.88;57.57;94970.06;4916811;29;20258;-84
2022/06/27 05:37:31;;;;;;;3.33;2.80;;;;;;;30.72;55.07;94966.72;4917412;29;20192;-79
2022/06/27 05:39:58;;;;;;;3.03;2.60;;;;;;;31.52;53.71;94972.56;4914954;29;20214;-75
2022/06/27 05:42:25;;;;;;;3.42;2.78;;;;;;;32.33;51.63;94974.41;4916699;29;20215;-75
2022/06/27 05:44:52;;;;;;;5.80;2.63;;;;;;;33.11;49.78;94973.16;4916670;29;20192;-86
2022/06/27 05:47:19;;;;;;;7.78;3.17;;;;;;;33.86;47.96;94980.97;4917301;29;20200;-86
2022/06/27 05:49:46;;;;;;;6.72;3.15;;;;;;;34.58;46.52;94979.28;4917042;29;20216;-77
2022/06/27 05:52:13;;;;;;;6.90;3.17;;;;;;;35.28;45.18;94978.78;4916442;29;20202;-78
2022/06/27 05:54:41;;;;;;;3.55;2.90;;;;;;;35.94;43.46;94979.69;4916173;29;20188;-76
2022/06/27 05:57:08;;;;;;;3.10;2.67;;;;;;;36.44;42.34;94961.28;4916215;29;20564;-80
2022/06/27 05:59:35;;;;;;;5.68;2.78;;;;;;;37.19;41.20;94983.34;4916578;29;20204;-77
2022/06/27 06:02:02;;;;;;;5.35;2.92;;;;;;;37.77;40.15;94979.94;4916063;29;20192;-77
2022/06/27 06:04:29;;;;;;;3.60;2.63;;;;;;;38.36;39.00;94996.72;4916751;29;20207;-84
2022/06/27 06:06:56;;;;;;;6.30;2.83;;;;;;;38.89;37.92;94991.31;4916150;29;20644;-75
2022/06/27 06:09:23;;;;;;;4.15;2.90;;;;;;;39.40;37.21;94997.13;4915817;29;20602;-78
2022/06/27 06:11:53;;;;;;;3.80;2.50;;;;;;;39.88;36.05;94994.31;4915604;29;20283;-79
2022/06/27 06:14:21;;;;;;;6.40;2.88;;;;;;;40.27;35.31;94973.78;4916225;29;20196;-77
2022/06/27 06:16:49;;;;;;;4.80;2.42;;;;;;;40.76;34.31;94987.72;4915842;29;20283;-75
2022/06/27 06:19:16;;;;;;;5.63;2.63;;;;;;;41.19;33.92;94988.59;4916297;29;20215;-83
2022/06/27 06:21:45;;;;;;;6.82;2.90;;;;;;;41.59;33.28;94989.00;4916487;29;20704;-78
2022/06/27 06:24:12;;;;;;;5.38;2.50;;;;;;;41.97;32.72;94996.09;4917255;29;20199;-81
2022/06/27 06:26:39;;;;;;;7.63;2.75;;;;;;;42.34;32.46;95000.53;4919750;29;20199;-85
2022/06/27 06:29:14;;;;;;;8.43;2.30;;;;;;;42.68;31.95;94995.13;4920770;29;20230;-84
2022/06/27 06:31:43;;;;;;;5.95;2.70;;;;;;;43.05;31.01;95004.00;4923351;29;20253;-84
2022/06/27 06:34:11;;;;;;;2.42;2.20;;;;;;;43.39;30.91;95007.31;4924469;29;20203;-85
2022/06/27 06:36:39;;;;;;;4.80;2.92;;;;;;;43.60;30.42;94991.03;4918479;29;20195;-76
2022/06/27 06:39:07;;;;;;;3.83;2.42;;;;;;;43.82;27.63;95003.97;4918795;29;20630;-79
2022/06/27 06:41:35;;;;;;;4.20;3.03;;;;;;;43.40;27.53;95011.59;4916135;29;20199;-81
2022/06/27 06:44:03;;;;;;;4.75;3.00;;;;;;;42.72;28.40;95010.25;4915579;29;20215;-82
2022/06/27 06:46:32;;;;;;;7.55;3.10;;;;;;;42.05;29.13;95004.09;4916207;29;20196;-82
2022/06/27 06:49:02;;;;;;;3.58;2.65;;;;;;;41.89;29.26;95005.06;4917256;29;20191;-79
2022/06/27 06:51:31;;;;;;;6.35;2.88;;;;;;;41.88;30.04;95006.16;4916123;29;20191;-82
2022/06/27 06:53:59;;;;;;;3.08;2.58;;;;;;;42.03;30.21;95009.03;4915814;29;20282;-78
2022/06/27 06:56:28;;;;;;;2.55;2.35;;;;;;;42.29;29.91;95011.50;4915702;29;20202;-80
2022/06/27 06:58:55;;;;;;;7.60;2.70;;;;;;;42.60;29.70;95018.28;4915910;29;20198;-84
2022/06/27 07:01:22;;;;;;;5.22;2.80;;;;;;;42.83;29.48;95003.28;4916961;29;20298;-81
2022/06/27 07:03:51;;;;;;;5.65;2.70;;;;;;;43.24;29.86;95020.38;4915351;29;20199;-81
2022/06/27 07:06:21;;;;;;;5.50;2.65;;;;;;;43.56;29.20;95025.94;4915913;29;20206;-82
2022/06/27 07:08:48;;;;;;;4.43;2.50;;;;;;;43.63;28.88;94990.38;4916041;29;20196;-79
2022/06/27 07:11:15;;;;;;;7.63;2.70;;;;;;;44.04;29.02;95005.38;4915654;29;20221;-83
2022/06/27 07:13:42;;;;;;;3.58;2.85;;;;;;;44.43;28.28;95019.94;4915491;29;20213;-87
2022/06/27 07:16:10;;;;;;;4.13;2.92;;;;;;;44.62;27.76;95007.69;4916019;29;20206;-84
2022/06/27 07:18:37;;;;;;;4.55;2.88;;;;;;;44.94;27.52;95027.38;4914926;29;20191;-85
2022/06/27 07:21:06;;;;;;;3.95;2.78;;;;;;;45.18;27.50;95035.31;4914983;29;20715;-81
2022/06/27 07:23:36;;;;;;;6.28;3.10;;;;;;;45.40;26.92;95028.47;4914857;29;20291;-78
2022/06/27 07:26:06;;;;;;;4.53;3.10;;;;;;;45.62;27.00;95037.84;4915902;29;20191;-83
2022/06/27 07:28:32;;;;;;;4.15;2.78;;;;;;;45.79;26.80;95034.75;4915432;29;20205;-80
2022/06/27 07:31:00;;;;;;;3.08;2.78;;;;;;;45.97;26.34;95037.81;4915689;29;20215;-85
2022/06/27 07:33:27;;;;;;;2.55;2.35;;;;;;;46.07;25.72;95020.22;4915536;29;20302;-84
2022/06/27 07:35:54;;;;;;;5.78;3.20;;;;;;;46.26;25.63;95022.19;4916995;29;20199;-78
2022/06/27 07:38:23;;;;;;;3.72;3.05;;;;;;;46.39;25.83;95022.78;4915851;29;20187;-83
2022/06/27 07:40:50;;;;;;;6.68;2.85;;;;;;;46.50;25.59;95029.16;4916211;29;20196;-82
2022/06/27 07:43:17;;;;;;;4.25;3.20;;;;;;;46.58;25.08;95020.06;4920359;29;20195;-82
2022/06/27 07:45:44;;;;;;;4.18;2.75;;;;;;;46.71;24.94;95029.56;4915563;29;20191;-84
2022/06/27 07:48:12;;;;;;;5.28;3.10;;;;;;;46.78;25.15;95026.97;4919056;29;20195;-86
2022/06/27 07:50:40;;;;;;;3.85;3.00;;;;;;;46.85;24.91;95015.47;4915846;29;20223;-84
2022/06/27 07:53:15;;;;;;;5.22;2.58;;;;;;;46.92;24.62;95018.31;4915685;29;20206;-84
2022/06/27 07:55:46;;;;;;;3.00;2.75;;;;;;;46.98;24.79;95019.59;4915702;29;20201;-83
2022/06/27 07:58:16;;;;;;;3.63;2.83;;;;;;;47.02;24.50;95019.63;4915396;29;20203;-84
2022/06/27 08:00:45;;;;;;;4.45;2.67;;;;;;;47.03;24.35;95015.00;4915056;29;20278;-85
2022/06/27 08:06:13;;;;;;;5.15;3.20;;;;;;;46.99;24.14;95023.09;4862138;29;20197;-84
2022/06/27 08:08:41;;;;;;;3.83;3.00;;;;;;;46.95;24.00;95017.59;4860558;29;20200;-85
2022/06/27 08:11:12;;;;;;;2.70;2.50;;;;;;;46.88;23.84;95019.38;4860104;29;20241;-85
2022/06/27 08:13:41;;;;;;;5.85;2.60;;;;;;;46.80;23.98;95018.47;4859755;29;20201;-81
2022/06/27 08:16:08;;;;;;;3.17;2.83;;;;;;;46.68;23.48;95019.47;4860082;29;20215;-79
2022/06/27 08:18:38;;;;;;;2.90;2.70;;;;;;;46.59;23.59;95024.31;4859773;29;20215;-85
2022/06/27 08:21:08;;;;;;;3.72;2.28;;;;;;;46.52;23.63;95024.97;4859933;29;20725;-77
2022/06/27 08:23:36;;;;;;;3.58;2.67;;;;;;;46.43;23.44;95021.72;4859517;29;20284;-77
2022/06/27 08:26:06;;;;;;;4.93;2.55;;;;;;;46.14;23.79;94993.31;4860755;29;20221;-84
2022/06/27 08:28:35;;;;;;;5.88;2.75;;;;;;;46.23;24.11;95017.47;4861425;29;20751;-78
2022/06/27 08:31:02;;;;;;;3.10;2.80;;;;;;;46.01;24.16;95002.75;4861112;29;20232;-76
2022/06/27 08:33:31;;;;;;;3.70;2.63;;;;;;;45.85;23.85;95000.09;4860992;29;20587;-76
2022/06/27 08:35:58;;;;;;;3.65;2.75;;;;;;;45.90;24.12;95020.66;4860478;29;20661;-77
2022/06/27 08:38:25;;;;;;;3.25;2.95;;;;;;;45.73;24.15;95011.84;4860682;29;20609;-85
2022/06/27 08:40:54;;;;;;;2.90;2.67;;;;;;;45.63;24.33;95025.13;4901832;29;20195;-85
2022/06/27 08:43:21;;;;;;;2.83;2.10;;;;;;;45.46;23.79;95012.78;4918579;29;20199;-85
2022/06/27 08:45:51;;;;;;;2.88;2.60;;;;;;;45.34;24.08;95010.97;4918689;29;20573;-85
2022/06/27 08:48:19;;;;;;;5.15;2.35;;;;;;;45.07;24.17;94995.69;4918863;29;20195;-80
2022/06/27 08:50:48;;;;;;;3.17;2.50;;;;;;;44.93;24.02;95009.63;4918164;29;20219;-81
2022/06/27 08:53:17;;;;;;;3.03;2.65;;;;;;;44.65;24.18;95018.59;4918404;29;20199;-79
2022/06/27 08:55:46;;;;;;;3.83;2.75;;;;;;;44.33;24.89;95015.03;4918877;29;20188;-81
2022/06/27 08:58:13;;;;;;;8.38;2.63;;;;;;;44.03;24.55;95001.91;4918960;29;20270;-85
2022/06/27 09:00:45;;;;;;;3.03;2.28;;;;;;;43.75;24.70;95007.28;4918345;29;20213;-86
2022/06/27 09:03:13;;;;;;;2.78;2.53;;;;;;;43.53;24.98;95016.66;4921321;29;20222;-86
2022/06/27 09:05:41;;;;;;;2.50;2.30;;;;;;;43.36;24.76;95019.59;4921622;29;20195;-83
2022/06/27 09:08:10;;;;;;;3.75;2.90;;;;;;;43.21;25.05;95012.97;4922623;29;20223;-84
2022/06/27 09:10:40;;;;;;;3.35;2.50;;;;;;;43.07;25.08;95012.53;4921380;29;20226;-79
2022/06/27 09:13:12;;;;;;;3.38;2.42;;;;;;;42.92;25.03;95019.34;4921643;29;20201;-78
2022/06/27 09:15:50;;;;;;;3.03;2.83;;;;;;;42.79;25.71;95015.06;4920096;29;20218;-84
2022/06/27 09:18:21;;;;;;;3.53;2.35;;;;;;;42.63;25.49;95011.44;4920210;29;20587;-81
2022/06/27 09:20:52;;;;;;;3.13;2.50;;;;;;;42.52;25.25;95011.09;4920515;29;20734;-78
2022/06/27 09:23:40;;;;;;;3.20;2.90;;;;;;;42.39;25.77;95010.28;4918016;29;20187;-82
2022/06/27 09:26:12;;;;;;;2.85;2.45;;;;;;;42.08;25.96;94973.88;4917437;29;20573;-77
2022/06/27 09:28:41;;;;;;;5.78;2.33;;;;;;;42.12;25.93;95002.78;4916980;29;20199;-78
2022/06/27 09:31:10;;;;;;;5.35;2.90;;;;;;;41.94;25.96;95002.94;4917163;29;20302;-75
2022/06/27 09:33:40;;;;;;;7.30;3.05;;;;;;;41.79;26.14;95003.50;4917224;29;20192;-78
2022/06/27 09:36:13;;;;;;;2.85;2.58;;;;;;;41.57;26.29;94991.22;4916516;29;20188;-81
2022/06/27 09:38:44;;;;;;;2.80;2.60;;;;;;;41.52;26.02;94994.09;4917010;29;20226;-85
2022/06/27 09:41:13;;;;;;;4.00;2.50;;;;;;;41.37;26.45;94992.75;4917126;29;20226;-85
2022/06/27 09:43:44;;;;;;;4.72;3.05;;;;;;;41.20;26.50;94993.66;4917747;29;20225;-84
2022/06/27 09:46:15;;;;;;;3.00;2.72;;;;;;;41.03;26.70;94989.16;4917975;29;20192;-86
2022/06/27 09:48:45;;;;;;;5.15;2.95;;;;;;;40.85;26.59;94980.41;4917632;29;20200;-85
2022/06/27 09:51:15;;;;;;;3.00;2.70;;;;;;;40.82;26.88;94994.44;4917082;29;20215;-86
2022/06/27 09:53:47;;;;;;;6.75;2.70;;;;;;;40.57;26.85;94963.16;4917806;29;20221;-84
2022/06/27 09:56:15;;;;;;;4.93;2.72;;;;;;;40.59;26.90;94982.38;4917217;29;20183;-83
2022/06/27 09:58:44;;;;;;;3.03;2.40;;;;;;;40.57;26.93;94988.09;4922000;29;20210;-85
2022/06/27 10:01:12;;;;;;;2.58;2.40;;;;;;;40.50;27.31;94985.06;4922197;29;20184;-86
2022/06/27 10:03:40;;;;;;;3.13;2.80;;;;;;;40.38;27.07;94976.94;4917414;29;20195;-84
2022/06/27 10:06:09;;;;;;;3.22;2.90;;;;;;;40.27;27.32;94979.16;4916233;29;20192;-84
2022/06/27 10:08:36;;;;;;;2.83;2.60;;;;;;;40.18;27.74;94977.59;4916314;29;20203;-85
2022/06/27 10:11:09;;;;;;;2.80;2.60;;;;;;;40.08;27.72;94979.50;4915901;29;20226;-84
2022/06/27 10:13:38;;;;;;;4.78;3.08;;;;;;;39.98;27.73;94985.16;4917024;29;20657;-83
2022/06/27 10:16:10;;;;;;;2.90;2.70;;;;;;;39.88;27.40;94978.25;4916617;29;20427;-83
2022/06/27 10:19:04;;;;;;;5.35;3.40;;;;;;;39.76;27.88;94967.38;4917046;29;20203;-86
2022/06/27 10:21:34;;;;;;;4.18;2.63;;;;;;;39.61;27.81;94949.09;4916655;29;20291;-81
2022/06/27 10:24:32;;;;;;;3.53;2.60;;;;;;;39.57;28.09;94966.91;4916880;29;20263;-84
2022/06/27 10:27:02;;;;;;;4.57;3.13;;;;;;;39.45;28.18;94962.16;4916803;29;20255;-80
2022/06/27 10:29:48;;;;;;;5.68;2.90;;;;;;;39.34;28.26;94966.28;4916672;29;20199;-83
2022/06/27 10:32:46;;;;;;;2.80;2.60;;;;;;;39.18;28.35;94973.91;4917177;29;20275;-84
2022/06/27 10:35:17;;;;;;;7.20;2.78;;;;;;;38.87;28.63;94949.94;4911173;29;20553;-84
2022/06/27 10:37:47;;;;;;;3.50;2.70;;;;;;;38.81;28.84;94959.97;4915938;29;20631;-81
2022/06/27 10:40:51;;;;;;;4.72;2.80;;;;;;;38.63;29.25;94956.44;4915848;29;20207;-85
2022/06/27 10:43:38;;;;;;;2.85;2.65;;;;;;;38.44;29.28;94958.56;4916186;29;20199;-80
2022/06/27 10:46:53;;;;;;;3.38;3.08;;;;;;;38.27;29.45;94951.22;4915796;29;20199;-75
2022/06/27 10:49:24;;;;;;;4.57;2.75;;;;;;;38.13;29.41;94951.31;4917265;29;20203;-77
2022/06/27 10:51:53;;;;;;;3.78;2.90;;;;;;;37.79;29.57;94922.47;4917082;29;20223;-81
2022/06/27 10:54:22;;;;;;;3.63;3.28;;;;;;;37.89;29.64;94956.19;4916287;29;20581;-86
2022/06/27 10:56:51;;;;;;;3.10;2.80;;;;;;;37.73;29.96;94958.38;4915867;29;20200;-82
2022/06/27 11:00:02;;;;;;;7.13;3.20;;;;;;;37.55;30.09;94952.13;4915987;29;20286;-85
2022/06/27 11:02:37;;;;;;;2.88;2.67;;;;;;;37.32;30.18;94943.28;4916798;29;20640;-77
2022/06/27 11:05:05;;;;;;;3.65;2.60;;;;;;;37.22;30.29;94945.38;4916104;29;20222;-76
2022/06/27 11:07:32;;;;;;;3.08;2.75;;;;;;;37.09;30.43;94947.81;4915738;29;20196;-81
2022/06/27 11:10:01;;;;;;;3.88;3.17;;;;;;;37.00;30.56;94944.22;4916261;29;20199;-77
2022/06/27 11:12:35;;;;;;;2.90;2.70;;;;;;;36.78;30.63;94936.13;4915847;29;20192;-80
2022/06/27 11:15:06;;;;;;;3.15;2.85;;;;;;;36.80;30.66;94940.09;4916565;29;20203;-77
2022/06/27 11:17:41;;;;;;;2.70;2.35;;;;;;;36.71;30.69;94939.22;4916402;29;20192;-74
2022/06/27 11:20:21;;;;;;;3.83;2.70;;;;;;;36.63;30.73;94930.03;4916029;29;20241;-79
2022/06/27 11:22:51;;;;;;;3.70;2.70;;;;;;;36.60;30.63;94941.28;4915680;29;20195;-80
2022/06/27 11:25:22;;;;;;;2.50;2.30;;;;;;;36.55;30.80;94943.25;4915505;29;20199;-80
2022/06/27 11:27:52;;;;;;;3.35;2.45;;;;;;;36.48;31.00;94940.19;4915314;29;20203;-78
2022/06/27 11:33:25;;;;;;;2.78;2.55;;;;;;;36.32;31.18;94939.66;4916669;29;20198;-77
2022/06/27 11:35:54;;;;;;;2.88;2.67;;;;;;;36.15;31.18;94926.91;4916925;29;20224;-79
2022/06/27 11:38:26;;;;;;;2.63;2.42;;;;;;;36.08;31.28;94926.50;4914812;29;20624;-78
2022/06/27 11:41:06;;;;;;;3.83;2.97;;;;;;;35.99;31.45;94918.38;4915918;29;20666;-79
2022/06/27 11:44:05;;;;;;;3.97;2.50;;;;;;;35.93;31.64;94933.63;4915375;29;20195;-78
2022/06/27 11:46:35;;;;;;;4.10;2.65;;;;;;;35.76;31.66;94914.75;4915171;29;20192;-76
2022/06/27 11:49:05;;;;;;;3.00;2.80;;;;;;;35.71;32.02;94927.34;4914666;29;20229;-76
2022/06/27 11:51:34;;;;;;;2.90;2.70;;;;;;;35.61;32.21;94923.75;4914732;29;20608;-80
2022/06/27 11:54:04;;;;;;;2.95;2.60;;;;;;;35.44;32.17;94913.59;4915265;29;20192;-74